createdAt,value
2019-02-11T00:00:06.443Z,925.93
2019-02-11T00:00:19.468Z,925.93
2019-02-11T00:00:32.487Z,925.9
2019-02-11T00:00:45.499Z,925.93
2019-02-11T00:00:58.458Z,925.9
2019-02-11T00:01:11.443Z,925.89
2019-02-11T00:01:24.513Z,925.88
2019-02-11T00:01:37.521Z,925.93
2019-02-11T00:01:50.505Z,925.88
2019-02-11T00:02:03.491Z,925.93
2019-02-11T00:02:16.494Z,925.87
2019-02-11T00:02:29.428Z,925.85
2019-02-11T00:02:42.419Z,925.86
2019-02-11T00:02:55.443Z,925.89
2019-02-11T00:03:08.554Z,925.84
2019-02-11T00:03:21.611Z,925.85
2019-02-11T00:03:34.619Z,925.88
2019-02-11T00:03:47.647Z,925.9
2019-02-11T00:04:06.741Z,925.88
2019-02-11T00:04:19.756Z,925.87
2019-02-11T00:04:32.717Z,925.88
2019-02-11T00:04:45.785Z,925.88
2019-02-11T00:04:58.842Z,925.88
2019-02-11T00:05:11.802Z,925.88
2019-02-11T00:05:24.820Z,925.89
2019-02-11T00:05:37.826Z,925.86
2019-02-11T00:05:50.796Z,925.86
2019-02-11T00:06:03.773Z,925.89
2019-02-11T00:06:16.747Z,925.87
2019-02-11T00:06:29.775Z,925.88
2019-02-11T00:06:42.740Z,925.9
2019-02-11T00:06:55.789Z,925.86
2019-02-11T00:07:08.853Z,925.9
2019-02-11T00:07:21.859Z,925.86
2019-02-11T00:07:34.869Z,925.86
2019-02-11T00:07:47.898Z,925.86
2019-02-11T00:08:00.897Z,925.89
2019-02-11T00:08:13.914Z,925.88
2019-02-11T00:08:26.878Z,925.85
2019-02-11T00:08:39.904Z,925.84
2019-02-11T00:08:52.983Z,925.88
2019-02-11T00:09:06.011Z,925.9
2019-02-11T00:09:19.003Z,925.85
2019-02-11T00:09:32.008Z,925.85
2019-02-11T00:09:44.993Z,925.87
2019-02-11T00:09:58.003Z,925.89
2019-02-11T00:10:11.005Z,925.9
2019-02-11T00:10:24.029Z,925.92
2019-02-11T00:10:37.028Z,925.87
2019-02-11T00:10:50.078Z,925.88
2019-02-11T00:11:03.795Z,925.86
2019-02-11T00:11:16.778Z,925.85
2019-02-11T00:11:30.525Z,925.88
2019-02-11T00:11:43.459Z,925.88
2019-02-11T00:11:56.438Z,925.89
2019-02-11T00:12:08.993Z,925.89
2019-02-11T00:12:22.012Z,925.91
2019-02-11T00:12:35.043Z,925.91
2019-02-11T00:12:47.980Z,925.88
2019-02-11T00:13:00.984Z,925.9
2019-02-11T00:13:20.704Z,925.87
2019-02-11T00:13:33.744Z,925.87
2019-02-11T00:13:46.715Z,925.89
2019-02-11T00:13:59.704Z,925.86
2019-02-11T00:14:12.674Z,925.85
2019-02-11T00:14:25.715Z,925.87
2019-02-11T00:14:38.686Z,925.82
2019-02-11T00:14:51.675Z,925.87
2019-02-11T00:15:04.657Z,925.85
2019-02-11T00:15:17.658Z,925.83
2019-02-11T00:15:30.706Z,925.86
2019-02-11T00:15:43.727Z,925.86
2019-02-11T00:15:56.719Z,925.89
2019-02-11T00:16:09.738Z,925.87
2019-02-11T00:16:22.726Z,925.84
2019-02-11T00:16:35.757Z,925.86
2019-02-11T00:16:48.824Z,925.81
2019-02-11T00:17:01.828Z,925.86
2019-02-11T00:17:14.746Z,925.86
2019-02-11T00:17:27.656Z,925.85
2019-02-11T00:17:40.671Z,925.82
2019-02-11T00:17:53.619Z,925.86
2019-02-11T00:18:06.214Z,925.82
2019-02-11T00:18:19.237Z,925.85
2019-02-11T00:18:32.186Z,925.85
2019-02-11T00:18:45.141Z,925.85
2019-02-11T00:18:58.141Z,925.85
2019-02-11T00:19:12.135Z,925.87
2019-02-11T00:19:24.697Z,925.86
2019-02-11T00:19:37.700Z,925.83
2019-02-11T00:19:50.668Z,925.84
2019-02-11T00:20:03.661Z,925.83
2019-02-11T00:20:16.658Z,925.88
2019-02-11T00:20:29.668Z,925.86
2019-02-11T00:20:42.683Z,925.86
2019-02-11T00:20:55.728Z,925.88
2019-02-11T00:21:08.698Z,925.88
2019-02-11T00:21:21.659Z,925.86
2019-02-11T00:21:34.595Z,925.86
2019-02-11T00:21:47.595Z,925.88
2019-02-11T00:22:00.551Z,925.87
2019-02-11T00:22:13.580Z,925.88
2019-02-11T00:22:26.613Z,925.88
2019-02-11T00:22:39.636Z,925.84
2019-02-11T00:22:52.592Z,925.87
2019-02-11T00:23:05.694Z,925.84
2019-02-11T00:23:18.683Z,925.86
2019-02-11T00:23:31.762Z,925.85
2019-02-11T00:23:44.786Z,925.89
2019-02-11T00:23:57.773Z,925.83
2019-02-11T00:24:10.797Z,925.87
2019-02-11T00:24:24.114Z,925.84
2019-02-11T00:24:37.193Z,925.82
2019-02-11T00:24:50.218Z,925.83
2019-02-11T00:25:03.264Z,925.8
2019-02-11T00:25:16.226Z,925.8
2019-02-11T00:25:29.265Z,925.8
2019-02-11T00:25:42.287Z,925.81
2019-02-11T00:25:55.375Z,925.77
2019-02-11T00:26:08.418Z,925.78
2019-02-11T00:26:21.372Z,925.79
2019-02-11T00:26:34.369Z,925.79
2019-02-11T00:26:47.375Z,925.77
2019-02-11T00:27:00.378Z,925.76
2019-02-11T00:27:13.361Z,925.75
2019-02-11T00:27:26.385Z,925.73
2019-02-11T00:27:39.434Z,925.73
2019-02-11T00:27:52.441Z,925.78
2019-02-11T00:28:05.455Z,925.75
2019-02-11T00:28:18.470Z,925.74
2019-02-11T00:28:31.472Z,925.74
2019-02-11T00:28:44.541Z,925.79
2019-02-11T00:28:57.581Z,925.76
2019-02-11T00:29:10.537Z,925.8
2019-02-11T00:29:23.581Z,925.79
2019-02-11T00:29:36.138Z,925.75
2019-02-11T00:29:49.068Z,925.75
2019-02-11T00:30:02.134Z,925.78
2019-02-11T00:30:15.134Z,925.79
2019-02-11T00:30:28.212Z,925.79
2019-02-11T00:30:41.347Z,925.81
2019-02-11T00:30:54.321Z,925.81
2019-02-11T00:31:07.310Z,925.77
2019-02-11T00:31:20.543Z,925.78
2019-02-11T00:31:34.090Z,925.8
2019-02-11T00:31:47.087Z,925.8
2019-02-11T00:32:00.101Z,925.8
2019-02-11T00:32:13.114Z,925.82
2019-02-11T00:32:26.153Z,925.84
2019-02-11T00:32:39.198Z,925.83
2019-02-11T00:32:52.418Z,925.81
2019-02-11T00:33:05.668Z,925.82
2019-02-11T00:33:18.680Z,925.8
2019-02-11T00:33:31.673Z,925.83
2019-02-11T00:33:44.703Z,925.81
2019-02-11T00:33:57.742Z,925.84
2019-02-11T00:34:10.799Z,925.83
2019-02-11T00:34:23.772Z,925.8
2019-02-11T00:34:36.708Z,925.85
2019-02-11T00:34:49.715Z,925.87
2019-02-11T00:35:02.800Z,925.85
2019-02-11T00:35:15.868Z,925.86
2019-02-11T00:35:28.830Z,925.83
2019-02-11T00:35:41.888Z,925.84
2019-02-11T00:35:54.900Z,925.84
2019-02-11T00:36:07.927Z,925.84
2019-02-11T00:36:20.902Z,925.83
2019-02-11T00:36:33.927Z,925.82
2019-02-11T00:36:46.487Z,925.82
2019-02-11T00:36:59.510Z,925.8
2019-02-11T00:37:12.503Z,925.79
2019-02-11T00:37:25.464Z,925.8
2019-02-11T00:37:38.448Z,925.82
2019-02-11T00:37:51.809Z,925.8
2019-02-11T00:38:04.832Z,925.8
2019-02-11T00:38:17.831Z,925.8
2019-02-11T00:38:30.841Z,925.8
2019-02-11T00:38:43.770Z,925.77
2019-02-11T00:38:56.777Z,925.83
2019-02-11T00:39:09.345Z,925.8
2019-02-11T00:39:22.296Z,925.79
2019-02-11T00:39:35.312Z,925.8
2019-02-11T00:39:48.328Z,925.78
2019-02-11T00:40:01.416Z,925.76
2019-02-11T00:40:14.375Z,925.8
2019-02-11T00:40:27.345Z,925.82
2019-02-11T00:40:40.367Z,925.82
2019-02-11T00:40:53.459Z,925.78
2019-02-11T00:41:06.507Z,925.78
2019-02-11T00:41:19.111Z,925.78
2019-02-11T00:41:32.086Z,925.83
2019-02-11T00:41:45.709Z,925.82
2019-02-11T00:41:58.747Z,925.81
2019-02-11T00:42:11.702Z,925.82
2019-02-11T00:42:24.702Z,925.82
2019-02-11T00:42:37.728Z,925.82
2019-02-11T00:42:50.746Z,925.84
2019-02-11T00:43:03.737Z,925.81
2019-02-11T00:43:23.311Z,925.8
2019-02-11T00:43:36.294Z,925.83
2019-02-11T00:43:49.368Z,925.86
2019-02-11T00:44:02.390Z,925.85
2019-02-11T00:44:15.408Z,925.79
2019-02-11T00:44:28.411Z,925.83
2019-02-11T00:44:41.419Z,925.81
2019-02-11T00:44:54.407Z,925.8
2019-02-11T00:45:07.460Z,925.81
2019-02-11T00:45:20.528Z,925.81
2019-02-11T00:45:33.569Z,925.83
2019-02-11T00:45:46.563Z,925.84
2019-02-11T00:45:59.539Z,925.82
2019-02-11T00:46:12.527Z,925.84
2019-02-11T00:46:25.511Z,925.85
2019-02-11T00:46:38.532Z,925.84
2019-02-11T00:46:51.470Z,925.83
2019-02-11T00:47:04.513Z,925.86
2019-02-11T00:47:17.536Z,925.81
2019-02-11T00:47:30.500Z,925.83
2019-02-11T00:47:43.532Z,925.82
2019-02-11T00:47:56.540Z,925.84
2019-02-11T00:48:10.824Z,925.85
2019-02-11T00:48:23.847Z,925.85
2019-02-11T00:48:36.879Z,925.84
2019-02-11T00:48:49.880Z,925.86
2019-02-11T00:49:02.916Z,925.85
2019-02-11T00:49:15.960Z,925.79
2019-02-11T00:49:28.909Z,925.81
2019-02-11T00:49:41.999Z,925.82
2019-02-11T00:49:55.022Z,925.84
2019-02-11T00:50:08.010Z,925.82
2019-02-11T00:50:20.998Z,925.86
2019-02-11T00:50:34.030Z,925.84
2019-02-11T00:50:47.069Z,925.82
2019-02-11T00:51:00.110Z,925.84
2019-02-11T00:51:13.166Z,925.86
2019-02-11T00:51:26.212Z,925.86
2019-02-11T00:51:39.170Z,925.86
2019-02-11T00:51:52.194Z,925.82
2019-02-11T00:52:05.203Z,925.87
2019-02-11T00:52:18.152Z,925.87
2019-02-11T00:52:31.186Z,925.87
2019-02-11T00:52:44.310Z,925.9
2019-02-11T00:52:57.416Z,925.89
2019-02-11T00:53:09.977Z,925.9
2019-02-11T00:53:23.010Z,925.9
2019-02-11T00:53:35.975Z,925.88
2019-02-11T00:53:48.926Z,925.88
2019-02-11T00:54:01.958Z,925.9
2019-02-11T00:54:14.586Z,925.92
2019-02-11T00:54:27.616Z,925.87
2019-02-11T00:54:40.626Z,925.91
2019-02-11T00:54:53.618Z,925.92
2019-02-11T00:55:06.579Z,925.9
2019-02-11T00:55:19.616Z,925.89
2019-02-11T00:55:32.649Z,925.89
2019-02-11T00:55:45.619Z,925.92
2019-02-11T00:55:58.603Z,925.87
2019-02-11T00:56:11.633Z,925.9
2019-02-11T00:56:24.604Z,925.9
2019-02-11T00:56:37.167Z,925.91
2019-02-11T00:56:51.181Z,925.93
2019-02-11T00:57:04.242Z,925.92
2019-02-11T00:57:17.231Z,925.91
2019-02-11T00:57:30.230Z,925.91
2019-02-11T00:57:43.299Z,925.94
2019-02-11T00:57:56.357Z,925.92
2019-02-11T00:58:09.371Z,925.9
2019-02-11T00:58:22.459Z,925.91
2019-02-11T00:58:35.519Z,925.88
2019-02-11T00:58:48.531Z,925.92
2019-02-11T00:59:01.547Z,925.92
2019-02-11T00:59:14.509Z,925.9
2019-02-11T00:59:28.139Z,925.92
2019-02-11T00:59:41.152Z,925.92
2019-02-11T00:59:53.723Z,925.92
2019-02-11T01:00:06.748Z,925.92
2019-02-11T01:00:19.773Z,925.89
2019-02-11T01:00:32.728Z,925.92
2019-02-11T01:00:45.717Z,925.91
2019-02-11T01:00:58.747Z,925.92
2019-02-11T01:01:11.811Z,925.9
2019-02-11T01:01:24.842Z,925.89
2019-02-11T01:01:37.821Z,925.92
2019-02-11T01:01:50.869Z,925.91
2019-02-11T01:02:03.919Z,925.92
2019-02-11T01:02:16.989Z,925.9
2019-02-11T01:02:30.073Z,925.93
2019-02-11T01:02:43.073Z,925.94
2019-02-11T01:02:56.004Z,925.91
2019-02-11T01:03:08.987Z,925.93
2019-02-11T01:03:22.018Z,925.94
2019-02-11T01:03:35.070Z,925.91
2019-02-11T01:03:48.065Z,925.92
2019-02-11T01:04:01.054Z,925.94
2019-02-11T01:04:14.120Z,925.95
2019-02-11T01:04:27.130Z,925.95
2019-02-11T01:04:40.185Z,925.96
2019-02-11T01:04:53.221Z,925.95
2019-02-11T01:05:06.251Z,925.97
2019-02-11T01:05:19.176Z,926
2019-02-11T01:05:32.273Z,925.97
2019-02-11T01:05:45.249Z,925.97
2019-02-11T01:05:58.233Z,925.95
2019-02-11T01:06:11.273Z,925.94
2019-02-11T01:06:24.270Z,925.95
2019-02-11T01:06:37.292Z,926
2019-02-11T01:06:50.341Z,926
2019-02-11T01:07:03.375Z,925.98
2019-02-11T01:07:17.734Z,925.95
2019-02-11T01:07:30.724Z,925.98
2019-02-11T01:07:43.794Z,926
2019-02-11T01:07:56.826Z,925.96
2019-02-11T01:08:09.755Z,925.97
2019-02-11T01:08:22.345Z,925.96
2019-02-11T01:08:35.301Z,926
2019-02-11T01:08:48.328Z,925.99
2019-02-11T01:09:01.334Z,925.97
2019-02-11T01:09:14.353Z,925.97
2019-02-11T01:09:27.443Z,925.95
2019-02-11T01:09:40.457Z,925.97
2019-02-11T01:09:53.561Z,926
2019-02-11T01:10:06.569Z,926.02
2019-02-11T01:10:19.612Z,925.99
2019-02-11T01:10:32.559Z,925.97
2019-02-11T01:10:45.524Z,926.01
2019-02-11T01:10:58.035Z,925.96
2019-02-11T01:11:10.547Z,925.99
2019-02-11T01:11:23.503Z,925.98
2019-02-11T01:11:36.478Z,926
2019-02-11T01:11:49.476Z,925.96
2019-02-11T01:12:03.305Z,925.97
2019-02-11T01:12:16.278Z,925.96
2019-02-11T01:12:29.183Z,925.98
2019-02-11T01:12:42.139Z,925.99
2019-02-11T01:12:55.174Z,925.96
2019-02-11T01:13:08.177Z,925.97
2019-02-11T01:13:28.975Z,925.96
2019-02-11T01:13:42.017Z,925.95
2019-02-11T01:13:55.740Z,925.96
2019-02-11T01:14:08.776Z,925.97
2019-02-11T01:14:21.826Z,925.93
2019-02-11T01:14:34.847Z,925.94
2019-02-11T01:14:47.338Z,925.94
2019-02-11T01:15:00.362Z,925.96
2019-02-11T01:15:13.406Z,925.96
2019-02-11T01:15:26.461Z,925.96
2019-02-11T01:15:39.405Z,925.9
2019-02-11T01:15:52.403Z,925.91
2019-02-11T01:16:05.423Z,925.9
2019-02-11T01:16:18.411Z,925.92
2019-02-11T01:16:30.953Z,925.87
2019-02-11T01:16:44.044Z,925.92
2019-02-11T01:16:57.262Z,925.91
2019-02-11T01:17:10.232Z,925.88
2019-02-11T01:17:23.189Z,925.92
2019-02-11T01:17:36.203Z,925.9
2019-02-11T01:17:49.133Z,925.91
2019-02-11T01:18:02.149Z,925.89
2019-02-11T01:18:15.076Z,925.9
2019-02-11T01:18:28.095Z,925.92
2019-02-11T01:18:41.075Z,925.9
2019-02-11T01:18:54.076Z,925.91
2019-02-11T01:19:07.126Z,925.9
2019-02-11T01:19:20.095Z,925.88
2019-02-11T01:19:33.102Z,925.93
2019-02-11T01:19:46.181Z,925.91
2019-02-11T01:19:59.212Z,925.93
2019-02-11T01:20:12.182Z,925.9
2019-02-11T01:20:25.216Z,925.93
2019-02-11T01:20:38.236Z,925.91
2019-02-11T01:20:51.229Z,925.93
2019-02-11T01:21:04.242Z,925.95
2019-02-11T01:21:17.258Z,925.94
2019-02-11T01:21:30.283Z,925.93
2019-02-11T01:21:42.776Z,925.95
2019-02-11T01:21:55.750Z,925.96
2019-02-11T01:22:08.716Z,925.96
2019-02-11T01:22:21.766Z,925.95
2019-02-11T01:22:34.842Z,925.94
2019-02-11T01:22:47.446Z,925.93
2019-02-11T01:23:00.378Z,925.94
2019-02-11T01:23:13.361Z,925.94
2019-02-11T01:23:26.419Z,925.94
2019-02-11T01:23:39.419Z,925.92
2019-02-11T01:23:52.473Z,925.93
2019-02-11T01:24:05.518Z,925.89
2019-02-11T01:24:18.549Z,925.92
2019-02-11T01:24:31.583Z,925.93
2019-02-11T01:24:44.628Z,925.92
2019-02-11T01:24:57.604Z,925.9
2019-02-11T01:25:10.679Z,925.92
2019-02-11T01:25:23.621Z,925.89
2019-02-11T01:25:36.661Z,925.92
2019-02-11T01:25:49.721Z,925.92
2019-02-11T01:26:02.721Z,925.87
2019-02-11T01:26:15.682Z,925.89
2019-02-11T01:26:28.732Z,925.88
2019-02-11T01:26:41.701Z,925.91
2019-02-11T01:26:54.756Z,925.89
2019-02-11T01:27:08.444Z,925.92
2019-02-11T01:27:21.440Z,925.87
2019-02-11T01:27:34.440Z,925.88
2019-02-11T01:27:47.478Z,925.88
2019-02-11T01:28:00.422Z,925.89
2019-02-11T01:28:13.451Z,925.91
2019-02-11T01:28:26.470Z,925.91
2019-02-11T01:28:39.391Z,925.89
2019-02-11T01:28:52.406Z,925.88
2019-02-11T01:29:05.410Z,925.89
2019-02-11T01:29:18.452Z,925.88
2019-02-11T01:29:31.446Z,925.9
2019-02-11T01:29:44.451Z,925.92
2019-02-11T01:29:57.540Z,925.93
2019-02-11T01:30:10.595Z,925.9
2019-02-11T01:30:23.556Z,925.93
2019-02-11T01:30:36.608Z,925.91
2019-02-11T01:30:49.588Z,925.87
2019-02-11T01:31:02.588Z,925.9
2019-02-11T01:31:15.611Z,925.92
2019-02-11T01:31:28.652Z,925.9
2019-02-11T01:31:41.661Z,925.91
2019-02-11T01:31:54.707Z,925.9
2019-02-11T01:32:07.672Z,925.91
2019-02-11T01:32:20.692Z,925.92
2019-02-11T01:32:33.748Z,925.97
2019-02-11T01:32:46.783Z,925.9
2019-02-11T01:32:59.777Z,925.92
2019-02-11T01:33:12.751Z,925.92
2019-02-11T01:33:25.719Z,925.92
2019-02-11T01:33:38.734Z,925.93
2019-02-11T01:33:51.744Z,925.89
2019-02-11T01:34:04.748Z,925.92
2019-02-11T01:34:17.740Z,925.92
2019-02-11T01:34:30.747Z,925.94
2019-02-11T01:34:43.809Z,925.93
2019-02-11T01:34:56.822Z,925.91
2019-02-11T01:35:09.778Z,925.91
2019-02-11T01:35:22.758Z,925.92
2019-02-11T01:35:35.761Z,925.91
2019-02-11T01:35:48.802Z,925.95
2019-02-11T01:36:01.353Z,925.94
2019-02-11T01:36:14.360Z,925.97
2019-02-11T01:36:27.351Z,925.95
2019-02-11T01:36:40.363Z,925.92
2019-02-11T01:36:53.336Z,925.94
2019-02-11T01:37:06.311Z,925.96
2019-02-11T01:37:19.363Z,925.96
2019-02-11T01:37:32.412Z,925.98
2019-02-11T01:37:45.421Z,925.97
2019-02-11T01:37:58.464Z,925.95
2019-02-11T01:38:11.477Z,925.93
2019-02-11T01:38:24.484Z,925.94
2019-02-11T01:38:37.506Z,925.93
2019-02-11T01:38:50.498Z,925.95
2019-02-11T01:39:03.460Z,925.95
2019-02-11T01:39:16.486Z,925.94
2019-02-11T01:39:29.426Z,925.94
2019-02-11T01:39:42.526Z,925.94
2019-02-11T01:39:55.570Z,925.93
2019-02-11T01:40:08.621Z,925.96
2019-02-11T01:40:21.229Z,925.92
2019-02-11T01:40:34.211Z,925.96
2019-02-11T01:40:47.236Z,925.94
2019-02-11T01:41:00.247Z,925.93
2019-02-11T01:41:13.303Z,925.91
2019-02-11T01:41:26.311Z,925.93
2019-02-11T01:41:39.424Z,925.95
2019-02-11T01:41:52.382Z,925.94
2019-02-11T01:42:06.139Z,925.94
2019-02-11T01:42:19.192Z,925.92
2019-02-11T01:42:32.152Z,925.93
2019-02-11T01:42:45.112Z,925.96
2019-02-11T01:42:58.125Z,925.93
2019-02-11T01:43:11.155Z,925.92
2019-02-11T01:43:24.197Z,925.91
2019-02-11T01:43:43.100Z,925.91
2019-02-11T01:43:56.082Z,925.92
2019-02-11T01:44:09.132Z,925.93
2019-02-11T01:44:22.161Z,925.9
2019-02-11T01:44:35.195Z,925.88
2019-02-11T01:44:48.287Z,925.88
2019-02-11T01:45:01.320Z,925.87
2019-02-11T01:45:14.312Z,925.86
2019-02-11T01:45:27.325Z,925.87
2019-02-11T01:45:40.346Z,925.86
2019-02-11T01:45:53.317Z,925.86
2019-02-11T01:46:06.326Z,925.89
2019-02-11T01:46:19.372Z,925.85
2019-02-11T01:46:32.345Z,925.86
2019-02-11T01:46:45.370Z,925.87
2019-02-11T01:46:58.424Z,925.85
2019-02-11T01:47:11.015Z,925.85
2019-02-11T01:47:24.055Z,925.86
2019-02-11T01:47:37.061Z,925.88
2019-02-11T01:47:50.057Z,925.86
2019-02-11T01:48:03.028Z,925.91
2019-02-11T01:48:16.067Z,925.89
2019-02-11T01:48:29.056Z,925.83
2019-02-11T01:48:42.141Z,925.87
2019-02-11T01:48:55.218Z,925.82
2019-02-11T01:49:08.257Z,925.84
2019-02-11T01:49:21.314Z,925.86
2019-02-11T01:49:34.315Z,925.81
2019-02-11T01:49:47.299Z,925.85
2019-02-11T01:50:00.401Z,925.84
2019-02-11T01:50:13.422Z,925.85
2019-02-11T01:50:26.509Z,925.86
2019-02-11T01:50:39.450Z,925.86
2019-02-11T01:50:52.386Z,925.89
2019-02-11T01:51:05.388Z,925.83
2019-02-11T01:51:18.400Z,925.85
2019-02-11T01:51:31.409Z,925.85
2019-02-11T01:51:44.447Z,925.86
2019-02-11T01:51:57.489Z,925.87
2019-02-11T01:52:10.441Z,925.87
2019-02-11T01:52:23.416Z,925.91
2019-02-11T01:52:36.473Z,925.91
2019-02-11T01:52:49.515Z,925.87
2019-02-11T01:53:02.573Z,925.88
2019-02-11T01:53:15.447Z,925.89
2019-02-11T01:53:28.502Z,925.88
2019-02-11T01:53:41.569Z,925.89
2019-02-11T01:53:54.592Z,925.92
2019-02-11T01:54:07.639Z,925.92
2019-02-11T01:54:20.622Z,925.87
2019-02-11T01:54:33.653Z,925.88
2019-02-11T01:54:46.696Z,925.87
2019-02-11T01:54:59.669Z,925.88
2019-02-11T01:55:12.706Z,925.89
2019-02-11T01:55:25.728Z,925.87
2019-02-11T01:55:38.758Z,925.93
2019-02-11T01:55:51.758Z,925.92
2019-02-11T01:56:04.739Z,925.95
2019-02-11T01:56:17.766Z,925.93
2019-02-11T01:56:30.785Z,925.92
2019-02-11T01:56:45.395Z,925.95
2019-02-11T01:56:58.395Z,925.92
2019-02-11T01:57:11.456Z,925.93
2019-02-11T01:57:24.467Z,925.98
2019-02-11T01:57:37.523Z,925.96
2019-02-11T01:57:50.593Z,925.92
2019-02-11T01:58:03.564Z,925.95
2019-02-11T01:58:16.619Z,925.94
2019-02-11T01:58:29.593Z,925.98
2019-02-11T01:58:42.559Z,925.96
2019-02-11T01:58:55.571Z,925.99
2019-02-11T01:59:08.646Z,926
2019-02-11T01:59:21.624Z,926
2019-02-11T01:59:34.132Z,925.97
2019-02-11T01:59:47.131Z,925.97
2019-02-11T02:00:00.180Z,926.01
2019-02-11T02:00:13.185Z,925.98
2019-02-11T02:00:26.191Z,925.99
2019-02-11T02:00:39.219Z,926
2019-02-11T02:00:52.246Z,925.97
2019-02-11T02:01:05.291Z,925.95
2019-02-11T02:01:18.264Z,925.97
2019-02-11T02:01:31.298Z,925.97
2019-02-11T02:01:44.272Z,926
2019-02-11T02:01:57.252Z,926.02
2019-02-11T02:02:10.276Z,926
2019-02-11T02:02:23.277Z,925.97
2019-02-11T02:02:35.792Z,926.04
2019-02-11T02:02:48.826Z,925.98
2019-02-11T02:03:01.838Z,926
2019-02-11T02:03:14.882Z,925.99
2019-02-11T02:03:27.442Z,925.95
2019-02-11T02:03:40.347Z,925.99
2019-02-11T02:03:53.375Z,926.02
2019-02-11T02:04:06.479Z,925.98
2019-02-11T02:04:19.502Z,926.02
2019-02-11T02:04:32.512Z,926
2019-02-11T02:04:45.540Z,926
2019-02-11T02:04:58.533Z,925.99
2019-02-11T02:05:11.108Z,925.99
2019-02-11T02:05:24.107Z,926.01
2019-02-11T02:05:37.163Z,926.06
2019-02-11T02:05:50.184Z,926
2019-02-11T02:06:03.187Z,926
2019-02-11T02:06:16.125Z,926.01
2019-02-11T02:06:29.142Z,926
2019-02-11T02:06:42.175Z,926.03
2019-02-11T02:06:55.189Z,925.98
2019-02-11T02:07:08.236Z,926.03
2019-02-11T02:07:21.261Z,926.01
2019-02-11T02:07:34.306Z,926.02
2019-02-11T02:07:47.257Z,926
2019-02-11T02:08:00.189Z,926.04
2019-02-11T02:08:13.111Z,926.03
2019-02-11T02:08:26.107Z,926.02
2019-02-11T02:08:39.144Z,925.98
2019-02-11T02:08:52.221Z,926.02
2019-02-11T02:09:05.251Z,926.01
2019-02-11T02:09:18.249Z,926.02
2019-02-11T02:09:31.234Z,926.01
2019-02-11T02:09:44.301Z,925.99
2019-02-11T02:09:57.350Z,925.99
2019-02-11T02:10:10.368Z,926
2019-02-11T02:10:23.397Z,925.97
2019-02-11T02:10:36.451Z,926.01
2019-02-11T02:10:49.454Z,926.03
2019-02-11T02:11:02.478Z,926.04
2019-02-11T02:11:15.503Z,926.01
2019-02-11T02:11:28.513Z,926.03
2019-02-11T02:11:41.564Z,926.03
2019-02-11T02:11:54.554Z,926.03
2019-02-11T02:12:07.639Z,926.03
2019-02-11T02:12:21.481Z,926.01
2019-02-11T02:12:34.531Z,926.05
2019-02-11T02:12:47.518Z,926.05
2019-02-11T02:13:00.583Z,926.05
2019-02-11T02:13:13.548Z,926.03
2019-02-11T02:13:26.477Z,926.04
2019-02-11T02:13:45.883Z,926.06
2019-02-11T02:13:58.941Z,926.05
2019-02-11T02:14:11.548Z,926.06
2019-02-11T02:14:24.599Z,926.04
2019-02-11T02:14:37.169Z,926.05
2019-02-11T02:14:50.229Z,926.05
2019-02-11T02:15:03.256Z,926.04
2019-02-11T02:15:16.258Z,926.08
2019-02-11T02:15:29.307Z,926.08
2019-02-11T02:15:42.268Z,926.08
2019-02-11T02:15:55.304Z,926.04
2019-02-11T02:16:08.352Z,926.06
2019-02-11T02:16:21.329Z,926.05
2019-02-11T02:16:34.412Z,926.04
2019-02-11T02:16:47.412Z,926.03
2019-02-11T02:17:00.422Z,926.02
2019-02-11T02:17:13.500Z,926.01
2019-02-11T02:17:26.477Z,926.03
2019-02-11T02:17:39.515Z,926.06
2019-02-11T02:17:52.506Z,926.05
2019-02-11T02:18:05.095Z,926.09
2019-02-11T02:18:18.096Z,926.04
2019-02-11T02:18:31.089Z,926.07
2019-02-11T02:18:44.078Z,926.06
2019-02-11T02:18:57.062Z,926.06
2019-02-11T02:19:10.021Z,926.04
2019-02-11T02:19:23.075Z,926.08
2019-02-11T02:19:36.151Z,926.07
2019-02-11T02:19:49.159Z,926.07
2019-02-11T02:20:02.195Z,926.12
2019-02-11T02:20:15.180Z,926.08
2019-02-11T02:20:28.219Z,926.08
2019-02-11T02:20:41.188Z,926.08
2019-02-11T02:20:54.186Z,926.09
2019-02-11T02:21:07.157Z,926.13
2019-02-11T02:21:20.236Z,926.11
2019-02-11T02:21:33.230Z,926.11
2019-02-11T02:21:46.215Z,926.09
2019-02-11T02:21:58.762Z,926.14
2019-02-11T02:22:11.728Z,926.11
2019-02-11T02:22:24.745Z,926.12
2019-02-11T02:22:37.795Z,926.09
2019-02-11T02:22:50.793Z,926.15
2019-02-11T02:23:03.847Z,926.14
2019-02-11T02:23:16.893Z,926.12
2019-02-11T02:23:29.916Z,926.13
2019-02-11T02:23:42.948Z,926.12
2019-02-11T02:23:55.945Z,926.11
2019-02-11T02:24:09.034Z,926.11
2019-02-11T02:24:22.046Z,926.11
2019-02-11T02:24:35.068Z,926.1
2019-02-11T02:24:48.055Z,926.11
2019-02-11T02:25:00.980Z,926.1
2019-02-11T02:25:14.034Z,926.11
2019-02-11T02:25:27.055Z,926.11
2019-02-11T02:25:40.076Z,926.1
2019-02-11T02:25:53.142Z,926.12
2019-02-11T02:26:06.110Z,926.11
2019-02-11T02:26:19.143Z,926.1
2019-02-11T02:26:32.088Z,926.11
2019-02-11T02:26:45.094Z,926.11
2019-02-11T02:26:58.119Z,926.14
2019-02-11T02:27:11.145Z,926.14
2019-02-11T02:27:24.397Z,926.15
2019-02-11T02:27:37.437Z,926.12
2019-02-11T02:27:50.405Z,926.14
2019-02-11T02:28:03.439Z,926.09
2019-02-11T02:28:16.512Z,926.14
2019-02-11T02:28:29.539Z,926.13
2019-02-11T02:28:42.555Z,926.13
2019-02-11T02:28:55.536Z,926.13
2019-02-11T02:29:08.480Z,926.17
2019-02-11T02:29:21.515Z,926.15
2019-02-11T02:29:34.502Z,926.13
2019-02-11T02:29:47.472Z,926.17
2019-02-11T02:30:00.530Z,926.13
2019-02-11T02:30:13.626Z,926.13
2019-02-11T02:30:26.612Z,926.16
2019-02-11T02:30:39.676Z,926.12
2019-02-11T02:30:52.723Z,926.12
2019-02-11T02:31:05.768Z,926.14
2019-02-11T02:31:18.826Z,926.13
2019-02-11T02:31:31.797Z,926.09
2019-02-11T02:31:44.878Z,926.09
2019-02-11T02:31:57.840Z,926.12
2019-02-11T02:32:10.910Z,926.11
2019-02-11T02:32:23.955Z,926.14
2019-02-11T02:32:36.989Z,926.08
2019-02-11T02:32:49.981Z,926.08
2019-02-11T02:33:02.989Z,926.07
2019-02-11T02:33:15.989Z,926.09
2019-02-11T02:33:28.981Z,926.08
2019-02-11T02:33:42.016Z,926.09
2019-02-11T02:33:54.984Z,926.1
2019-02-11T02:34:07.970Z,926.09
2019-02-11T02:34:21.003Z,926.1
2019-02-11T02:34:34.050Z,926.08
2019-02-11T02:34:47.091Z,926.08
2019-02-11T02:35:00.288Z,926.09
2019-02-11T02:35:13.295Z,926.09
2019-02-11T02:35:26.328Z,926.06
2019-02-11T02:35:39.329Z,926.04
2019-02-11T02:35:52.238Z,926.03
2019-02-11T02:36:05.233Z,926.07
2019-02-11T02:36:18.243Z,926.05
2019-02-11T02:36:31.276Z,926.04
2019-02-11T02:36:44.329Z,926.06
2019-02-11T02:36:57.260Z,926.02
2019-02-11T02:37:10.313Z,926.05
2019-02-11T02:37:23.267Z,926.08
2019-02-11T02:37:36.262Z,926.03
2019-02-11T02:37:49.222Z,926.03
2019-02-11T02:38:02.206Z,926.01
2019-02-11T02:38:15.230Z,926.02
2019-02-11T02:38:28.266Z,926.03
2019-02-11T02:38:41.242Z,926
2019-02-11T02:38:54.333Z,925.99
2019-02-11T02:39:06.821Z,925.99
2019-02-11T02:39:19.824Z,926
2019-02-11T02:39:32.421Z,925.99
2019-02-11T02:39:45.466Z,926.03
2019-02-11T02:39:58.479Z,925.99
2019-02-11T02:40:11.473Z,926
2019-02-11T02:40:24.516Z,925.99
2019-02-11T02:40:37.578Z,926.01
2019-02-11T02:40:50.576Z,926.01
2019-02-11T02:41:03.576Z,926.03
2019-02-11T02:41:16.615Z,926.01
2019-02-11T02:41:29.649Z,926.01
2019-02-11T02:41:42.707Z,926.01
2019-02-11T02:41:55.277Z,926.02
2019-02-11T02:42:08.308Z,926.01
2019-02-11T02:42:21.348Z,926.01
2019-02-11T02:42:35.134Z,926.03
2019-02-11T02:42:47.744Z,926.03
2019-02-11T02:43:00.717Z,926.03
2019-02-11T02:43:13.733Z,926.02
2019-02-11T02:43:26.744Z,926.07
2019-02-11T02:43:39.798Z,926.07
2019-02-11T02:44:02.439Z,926.06